TimeEST,TemperatureF,Dew PointF,Humidity,Sea Level PressureIn,VisibilityMPH,Wind Direction,Wind SpeedMPH,Gust SpeedMPH,PrecipitationIn,Events,Conditions,WindDirDegrees,DateUTC
12:27 AM,32.0,30.2,93,29.58,1.2,North,3.5,-,0.02,Snow,Light Snow,360,2013-02-20 05:27:00
12:39 AM,32.0,30.2,93,29.58,1.5,NW,9.2,-,0.03,Snow,Light Snow,320,2013-02-20 05:39:00
12:49 AM,30.2,28.4,93,29.57,3.0,NW,6.9,-,0.03,Snow,Light Snow,310,2013-02-20 05:49:00
12:50 AM,30.9,28.0,89,29.60,3.0,Variable,6.9,-,0.03,Snow,Light Snow,0,2013-02-20 05:50:00
1:18 AM,30.2,24.8,80,29.57,9.0,NNE,4.6,-,0.00,,Overcast,30,2013-02-20 06:18:00
1:54 AM,28.9,25.0,85,29.60,5.0,Calm,Calm,-,0.00,Snow,Light Snow,0,2013-02-20 06:54:00
2:03 AM,28.4,24.8,86,29.58,4.0,Calm,Calm,-,0.00,Snow,Light Snow,0,2013-02-20 07:03:00
2:21 AM,28.4,24.8,86,29.57,5.0,WNW,3.5,-,0.00,Snow,Light Snow,300,2013-02-20 07:21:00
2:54 AM,28.0,21.0,75,29.61,5.0,Calm,Calm,-,0.00,Snow,Light Snow,0,2013-02-20 07:54:00
3:26 AM,26.6,21.2,80,29.58,2.5,Calm,Calm,-,0.00,Snow,Light Snow,0,2013-02-20 08:26:00
3:37 AM,26.6,21.2,80,29.58,4.0,Calm,Calm,-,0.00,Snow,Light Snow,0,2013-02-20 08:37:00
3:54 AM,26.1,23.0,88,29.61,7.0,East,3.5,-,0.00,,Overcast,90,2013-02-20 08:54:00
4:54 AM,26.1,21.9,84,29.60,10.0,Calm,Calm,-,N/A,,Overcast,0,2013-02-20 09:54:00
5:54 AM,26.1,21.0,81,29.60,10.0,East,3.5,-,N/A,,Overcast,100,2013-02-20 10:54:00
6:54 AM,27.0,19.9,75,29.60,9.0,SW,3.5,-,N/A,,Overcast,220,2013-02-20 11:54:00
7:54 AM,27.0,19.0,72,29.61,10.0,Variable,5.8,-,N/A,,Overcast,0,2013-02-20 12:54:00
8:54 AM,27.0,15.1,61,29.60,10.0,Variable,5.8,-,N/A,,Overcast,0,2013-02-20 13:54:00
9:54 AM,27.0,12.9,56,29.61,10.0,SSW,6.9,-,N/A,,Overcast,210,2013-02-20 14:54:00
10:54 AM,27.0,14.0,58,29.62,10.0,Variable,5.8,-,N/A,,Overcast,0,2013-02-20 15:54:00
11:54 AM,27.0,12.9,56,29.62,10.0,Variable,6.9,-,N/A,,Overcast,0,2013-02-20 16:54:00
12:54 PM,27.0,12.0,53,29.62,10.0,West,8.1,20.7,N/A,,Overcast,280,2013-02-20 17:54:00
1:54 PM,26.1,14.0,60,29.62,6.0,SW,4.6,-,0.00,Snow,Light Snow,230,2013-02-20 18:54:00
2:54 PM,25.0,16.0,69,29.63,4.0,Calm,Calm,-,0.00,Snow,Light Snow,0,2013-02-20 19:54:00
3:49 PM,24.8,15.8,69,29.61,2.5,Variable,5.8,-,0.00,Snow,Light Snow,0,2013-02-20 20:49:00
3:54 PM,25.0,17.1,72,29.64,2.5,Variable,4.6,-,0.00,Snow,Light Snow,0,2013-02-20 20:54:00
3:59 PM,24.8,17.6,74,29.61,3.0,Variable,4.6,-,0.00,Snow,Light Snow,0,2013-02-20 20:59:00
4:54 PM,24.1,15.1,69,29.66,5.0,Variable,5.8,-,0.00,Snow,Light Snow,0,2013-02-20 21:54:00
5:54 PM,23.0,15.1,72,29.69,3.0,Variable,4.6,-,0.00,Snow,Light Snow,0,2013-02-20 22:54:00
6:00 PM,23.0,15.8,74,29.65,2.5,WSW,5.8,-,0.00,Snow,Light Snow,240,2013-02-20 23:00:00
6:15 PM,23.0,15.8,74,29.66,1.5,Variable,5.8,-,0.00,Snow,Light Snow,0,2013-02-20 23:15:00
6:26 PM,23.0,17.6,80,29.67,1.0,WSW,5.8,-,0.00,Snow,Light Snow,240,2013-02-20 23:26:00
6:43 PM,21.2,17.6,86,29.67,1.2,WSW,3.5,-,0.01,Snow,Light Snow,250,2013-02-20 23:43:00
6:54 PM,23.0,17.1,78,29.71,1.2,West,4.6,-,0.01,Snow,Light Snow,260,2013-02-20 23:54:00
7:06 PM,23.0,17.6,80,29.67,1.2,Variable,6.9,-,0.00,Snow,Light Snow,0,2013-02-21 00:06:00
7:15 PM,21.2,17.6,86,29.67,1.0,West,8.1,-,0.00,Snow,Light Snow,260,2013-02-21 00:15:00
7:54 PM,21.9,17.1,82,29.71,1.0,Variable,3.5,-,0.01,Snow,Light Snow,0,2013-02-21 00:54:00
8:28 PM,23.0,17.6,80,29.67,1.2,Variable,4.6,-,0.01,Snow,Light Snow,0,2013-02-21 01:28:00
8:54 PM,23.0,17.1,78,29.72,1.5,WSW,5.8,-,0.01,Snow,Light Snow,240,2013-02-21 01:54:00
9:14 PM,23.0,17.6,80,29.68,2.0,Variable,6.9,-,0.00,Snow,Light Snow,0,2013-02-21 02:14:00
9:28 PM,23.0,15.8,74,29.68,1.8,West,6.9,-,0.00,Snow,Light Snow,270,2013-02-21 02:28:00
9:54 PM,23.0,16.0,74,29.72,2.0,WSW,6.9,-,0.00,Snow,Light Snow,250,2013-02-21 02:54:00
10:36 PM,23.0,15.8,74,29.70,1.0,NW,9.2,-,0.00,Snow,Light Snow,320,2013-02-21 03:36:00
10:54 PM,19.9,15.1,81,29.74,1.2,NNW,16.1,24.2,0.01,Snow,Light Snow,330,2013-02-21 03:54:00
11:12 PM,19.4,14.0,80,29.71,1.5,NNW,13.8,20.7,0.00,Snow,Light Snow,330,2013-02-21 04:12:00
11:54 PM,18.0,12.0,78,29.77,1.0,NNW,12.7,24.2,0.00,Snow,Light Snow,330,2013-02-21 04:54:00